Time;durP1;ratioP1;P1;durP2;ratioP2;P2;SDS_P1;SDS_P2;PMS_P1;PMS_P2;Temp;Humidity;BMP_temperature;BMP_pressure;BME280_temperature;BME280_humidity;BME280_pressure;Samples;Min_cycle;Max_cycle;Signal;HPM_P1;HPM_P2
2022/01/22 00:00:25;;;;;;;17.48;6.25;;;;;;;-3.30;78.95;99505.90;1708959;84;21170;-85
2022/01/22 00:03:30;;;;;;;17.87;6.20;;;;;;;-3.26;78.70;99498.89;1708535;84;21368;-81
2022/01/22 00:06:35;;;;;;;15.25;5.70;;;;;;;-3.21;78.69;99493.21;1708208;84;21325;-78
2022/01/22 00:09:48;;;;;;;17.87;6.72;;;;;;;-3.12;78.64;99492.07;1707798;83;21558;-85
2022/01/22 00:15:56;;;;;;;14.47;7.20;;;;;;;-2.94;77.99;99487.23;1708496;84;21313;-85
2022/01/22 00:19:03;;;;;;;16.15;6.37;;;;;;;-2.92;77.68;99487.95;1707317;83;21184;-86
2022/01/22 00:22:08;;;;;;;18.05;6.83;;;;;;;-2.89;77.46;99490.42;1708671;84;21882;-79
2022/01/22 00:25:14;;;;;;;20.92;8.48;;;;;;;-2.85;77.31;99474.52;1708521;84;21186;-78
2022/01/22 00:28:20;;;;;;;13.90;6.58;;;;;;;-2.87;76.92;99474.23;1708743;84;21816;-86
2022/01/22 00:31:25;;;;;;;17.67;7.17;;;;;;;-2.87;76.92;99472.91;1708674;84;21870;-86
2022/01/22 00:34:29;;;;;;;19.57;8.18;;;;;;;-2.88;77.08;99481.42;1708722;84;21866;-86
2022/01/22 00:37:35;;;;;;;16.95;8.00;;;;;;;-2.87;77.04;99468.44;1707577;84;21305;-86
2022/01/22 00:40:41;;;;;;;17.42;6.30;;;;;;;-2.87;76.96;99477.80;1708180;84;21373;-78
2022/01/22 00:43:47;;;;;;;12.33;5.55;;;;;;;-2.90;76.77;99472.66;1714143;84;21285;-85
2022/01/22 00:46:52;;;;;;;18.15;7.50;;;;;;;-2.90;76.78;99469.98;1714074;84;21214;-79
2022/01/22 00:49:57;;;;;;;15.08;7.12;;;;;;;-2.93;76.79;99472.88;1714127;84;21178;-80
2022/01/22 00:53:02;;;;;;;20.48;7.22;;;;;;;-2.97;76.49;99470.05;1714102;84;21218;-83
2022/01/22 00:56:07;;;;;;;16.30;6.83;;;;;;;-3.06;76.42;99466.69;1713834;84;21886;-86
2022/01/22 00:59:12;;;;;;;12.82;6.60;;;;;;;-3.14;76.29;99473.09;1684113;85;21185;-78
2022/01/22 01:02:17;;;;;;;26.20;7.72;;;;;;;-3.27;76.23;99480.28;1685350;85;21733;-78
2022/01/22 01:05:23;;;;;;;14.53;6.25;;;;;;;-3.42;76.45;99479.55;1670327;86;21300;-86
2022/01/22 01:08:29;;;;;;;13.28;6.50;;;;;;;-3.50;76.78;99473.88;1670334;86;21843;-86
2022/01/22 01:11:42;;;;;;;17.80;7.30;;;;;;;-3.57;76.74;99469.46;1670189;86;21230;-78
2022/01/22 01:14:48;;;;;;;12.85;6.03;;;;;;;-3.71;76.72;99469.08;1685530;85;21162;-82
2022/01/22 01:34:29;;;;;;;12.93;6.67;;;;;;;-4.55;78.40;99476.13;1685474;85;21279;-78
2022/01/22 01:37:35;;;;;;;13.88;6.20;;;;;;;-4.59;78.46;99478.62;1685441;85;21326;-78
2022/01/22 01:40:43;;;;;;;12.68;6.83;;;;;;;-4.61;78.62;99483.22;1670293;86;21332;-78
2022/01/22 01:43:47;;;;;;;12.35;6.42;;;;;;;-4.63;78.84;99482.44;1671947;86;21406;-86
2022/01/22 01:47:15;;;;;;;10.60;5.20;;;;;;;-4.65;78.80;99485.70;1673266;86;21339;-86
2022/01/22 01:50:19;;;;;;;15.53;5.42;;;;;;;-4.71;78.73;99483.41;1674377;86;21296;-86
2022/01/22 01:53:45;;;;;;;12.53;5.40;;;;;;;-4.76;78.79;99486.38;1674221;86;21188;-86
2022/01/22 01:59:57;;;;;;;10.40;4.60;;;;;;;-4.94;78.89;99488.45;1674184;86;21288;-78
2022/01/22 02:03:03;;;;;;;10.58;4.65;;;;;;;-5.06;79.03;99486.55;1674285;86;21815;-78
2022/01/22 02:06:10;;;;;;;11.75;5.08;;;;;;;-5.15;79.21;99484.47;1674186;86;21359;-78
2022/01/22 02:09:14;;;;;;;11.57;5.05;;;;;;;-5.18;79.39;99486.84;1674173;86;21304;-78
2022/01/22 02:25:55;;;;;;;11.68;5.05;;;;;;;-5.57;79.96;99504.00;1643447;87;21790;-86
2022/01/22 02:28:59;;;;;;;8.28;4.72;;;;;;;-5.62;79.96;99505.62;1657380;86;21424;-78
2022/01/22 02:35:37;;;;;;;10.60;5.12;;;;;;;-5.81;79.85;99505.87;1674299;86;21718;-78
2022/01/22 02:38:45;;;;;;;14.98;5.92;;;;;;;-5.88;79.87;99505.00;1674421;86;21316;-86
2022/01/22 02:41:44;;;;;;;9.63;4.83;;;;;;;-5.94;79.94;99506.27;1674220;86;21186;-86
2022/01/22 02:44:34;;;;;;;14.53;4.67;;;;;;;-5.98;79.70;99504.25;1657710;83;21207;-86
2022/01/22 02:47:28;;;;;;;11.08;5.05;;;;;;;-6.08;79.29;99504.42;1643963;87;21346;-86
2022/01/22 02:50:33;;;;;;;9.93;4.80;;;;;;;-6.22;79.17;99512.37;1644161;87;21302;-78
2022/01/22 02:53:39;;;;;;;10.43;4.42;;;;;;;-6.31;79.16;99518.23;1642857;87;21771;-78
2022/01/22 02:56:57;;;;;;;11.55;4.33;;;;;;;-6.44;79.49;99508.31;1643536;87;21337;-85
2022/01/22 03:00:04;;;;;;;10.40;4.83;;;;;;;-6.55;79.72;99509.39;1698506;84;21196;-85
2022/01/22 03:03:09;;;;;;;11.18;5.53;;;;;;;-6.65;80.38;99510.86;1716427;83;21191;-85
2022/01/22 03:06:17;;;;;;;13.25;6.08;;;;;;;-6.72;80.72;99515.69;1690556;83;21230;-77
2022/01/22 03:09:29;;;;;;;14.15;7.58;;;;;;;-6.79;81.07;99517.44;1686612;85;21308;-85
2022/01/22 03:18:57;;;;;;;15.18;6.70;;;;;;;-6.83;82.45;99522.54;1686915;85;21329;-78
2022/01/22 03:22:15;;;;;;;11.73;5.92;;;;;;;-6.79;82.83;99523.61;1686423;85;21397;-77
2022/01/22 03:28:33;;;;;;;9.23;5.33;;;;;;;-6.66;83.50;99526.92;1686531;84;21921;-79
2022/01/22 03:31:37;;;;;;;11.30;5.85;;;;;;;-6.54;83.81;99521.77;1686989;85;21253;-77
2022/01/22 03:34:56;;;;;;;11.48;7.12;;;;;;;-6.35;84.08;99525.56;1687593;83;21319;-77
2022/01/22 03:37:51;;;;;;;13.40;6.58;;;;;;;-6.15;84.18;99532.38;1687468;85;21301;-86
2022/01/22 03:40:57;;;;;;;13.60;6.12;;;;;;;-5.94;84.27;99528.90;1687363;85;21210;-84
2022/01/22 03:44:04;;;;;;;14.75;6.45;;;;;;;-5.78;84.28;99531.48;1686400;85;21325;-77
2022/01/22 03:47:11;;;;;;;16.20;6.55;;;;;;;-5.65;84.18;99539.09;1686556;85;21372;-86
2022/01/22 03:50:22;;;;;;;10.48;5.75;;;;;;;-5.52;84.12;99541.41;1686526;85;21842;-85
2022/01/22 03:53:25;;;;;;;8.80;4.55;;;;;;;-5.44;83.57;99545.80;1687635;85;21225;-77
2022/01/22 03:56:31;;;;;;;11.45;5.53;;;;;;;-5.45;82.99;99541.91;1686955;85;21329;-85
2022/01/22 03:59:40;;;;;;;;;;;;;;;-5.56;82.95;99531.88;1679829;85;21368;-85
2022/01/22 04:09:41;;;;;;;12.25;4.40;;;;;;;-5.88;83.19;99535.63;1674738;85;21354;-84
2022/01/22 04:12:59;;;;;;;10.40;5.42;;;;;;;-5.99;83.38;99544.30;1674119;85;21884;-77
2022/01/22 04:16:00;;;;;;;14.07;5.83;;;;;;;-6.13;83.40;99537.12;1657284;85;21254;-77
2022/01/22 04:26:02;;;;;;;11.43;5.08;;;;;;;-6.36;84.46;99541.11;1685541;85;21356;-78
2022/01/22 04:28:59;;;;;;;12.58;5.37;;;;;;;-6.41;84.63;99547.66;1684878;84;21345;-78
2022/01/22 04:32:04;;;;;;;13.98;5.55;;;;;;;-6.47;84.79;99550.20;1684800;85;21333;-78
2022/01/22 04:35:09;;;;;;;14.75;5.25;;;;;;;-6.54;84.69;99553.69;1685720;85;21183;-79
2022/01/22 04:38:14;;;;;;;15.63;5.45;;;;;;;-6.61;84.62;99568.27;1685696;85;21325;-85
2022/01/22 04:41:20;;;;;;;7.53;5.08;;;;;;;-6.63;84.70;99573.28;1685712;85;21352;-86
2022/01/22 04:44:28;;;;;;;11.60;5.20;;;;;;;-6.67;84.82;99568.63;1685645;85;21357;-78
2022/01/22 04:57:24;;;;;;;10.75;5.12;;;;;;;-6.89;84.09;99567.63;1685637;85;21222;-79
2022/01/22 05:00:34;;;;;;;16.70;6.17;;;;;;;-6.99;84.47;99567.27;1683471;85;21323;-86
2022/01/22 05:03:58;;;;;;;13.50;5.50;;;;;;;-7.00;84.83;99564.70;1720523;83;21821;-86
2022/01/22 05:07:17;;;;;;;10.13;5.83;;;;;;;-6.98;84.96;99567.66;1691381;85;21832;-78
2022/01/22 05:10:30;;;;;;;9.93;6.00;;;;;;;-6.96;84.60;99571.10;1655930;86;21817;-78
2022/01/22 05:13:37;;;;;;;16.95;6.75;;;;;;;-6.98;84.42;99574.77;1691558;85;21355;-79
2022/01/22 05:16:43;;;;;;;10.32;5.97;;;;;;;-6.97;84.42;99577.34;1655873;86;21288;-86
2022/01/22 05:19:55;;;;;;;12.95;5.95;;;;;;;-6.95;84.19;99577.27;1691612;85;21260;-78
2022/01/22 05:26:06;;;;;;;12.37;6.28;;;;;;;-7.06;83.12;99583.16;1691748;85;21897;-78
2022/01/22 05:33:01;;;;;;;13.10;6.15;;;;;;;-7.32;83.73;99587.23;1691557;85;21314;-83
2022/01/22 05:39:28;;;;;;;13.00;6.35;;;;;;;-7.32;85.00;99604.97;1691723;85;21851;-85
2022/01/22 05:42:36;;;;;;;13.13;6.58;;;;;;;-7.35;85.61;99605.13;1672688;85;21318;-79
2022/01/22 05:45:41;;;;;;;15.20;7.65;;;;;;;-7.48;86.00;99609.77;1691509;85;21382;-78
2022/01/22 05:48:46;;;;;;;22.95;9.15;;;;;;;-7.54;87.02;99604.75;1656031;86;21189;-86
2022/01/22 05:51:54;;;;;;;19.62;7.42;;;;;;;-7.51;88.12;99611.25;1690880;85;21893;-86
2022/01/22 06:01:32;;;;;;;22.02;11.40;;;;;;;-7.12;88.93;99594.60;1668201;85;21214;-78
2022/01/22 06:04:40;;;;;;;21.80;8.95;;;;;;;-7.03;88.37;99596.77;1668788;86;21288;-79
2022/01/22 06:07:48;;;;;;;27.07;12.90;;;;;;;-7.03;87.60;99604.27;1623057;88;21304;-84
2022/01/22 06:10:55;;;;;;;20.37;9.48;;;;;;;-7.01;87.22;99601.52;1622927;88;21244;-85
2022/01/22 06:14:04;;;;;;;16.37;7.80;;;;;;;-7.01;87.03;99613.03;1622934;88;21212;-85
2022/01/22 06:17:10;;;;;;;18.05;7.05;;;;;;;-7.12;87.07;99619.37;1623045;88;21327;-78
2022/01/22 06:20:17;;;;;;;20.15;8.18;;;;;;;-7.19;87.54;99614.02;1623075;88;21169;-85
2022/01/22 06:23:22;;;;;;;13.65;7.42;;;;;;;-7.22;88.20;99613.70;1623140;88;21311;-86
2022/01/22 06:26:27;;;;;;;14.45;8.03;;;;;;;-7.20;88.72;99612.28;1623067;88;21795;-78
2022/01/22 06:29:32;;;;;;;19.15;7.90;;;;;;;-7.06;89.01;99607.08;1622994;88;21335;-78
2022/01/22 06:32:37;;;;;;;19.60;9.00;;;;;;;-6.89;89.06;99604.84;1622983;88;21342;-78
2022/01/22 06:35:43;;;;;;;22.52;8.58;;;;;;;-6.75;88.89;99597.45;1629424;87;21343;-85
2022/01/22 06:38:50;;;;;;;14.30;7.30;;;;;;;-6.63;88.57;99600.77;1623114;88;21315;-85
2022/01/22 06:42:12;;;;;;;26.57;8.45;;;;;;;-6.57;88.02;99589.77;1622199;88;21213;-78
2022/01/22 06:45:20;;;;;;;19.27;8.48;;;;;;;-6.53;87.46;99595.31;1623995;87;21213;-84
2022/01/22 06:48:27;;;;;;;17.10;8.03;;;;;;;-6.47;87.23;99601.61;1623062;88;21914;-83
2022/01/22 06:51:43;;;;;;;17.80;8.98;;;;;;;-6.37;86.99;99609.08;1622927;88;21376;-85
2022/01/22 06:54:49;;;;;;;18.48;9.03;;;;;;;-6.29;86.60;99605.04;1623094;88;21327;-83
2022/01/22 06:57:56;;;;;;;22.17;10.60;;;;;;;-6.22;86.30;99610.86;1623193;88;21323;-82
2022/01/22 07:01:04;;;;;;;17.45;7.97;;;;;;;-6.18;85.93;99614.59;1630895;87;21272;-78
2022/01/22 07:04:13;;;;;;;17.30;8.35;;;;;;;-6.15;85.79;99607.39;1646640;87;21798;-84
2022/01/22 07:07:24;;;;;;;13.72;6.75;;;;;;;-6.07;85.87;99606.45;1645466;87;21323;-75
2022/01/22 07:10:31;;;;;;;14.65;6.97;;;;;;;-5.97;85.68;99624.50;1682221;85;21310;-83
2022/01/22 07:13:37;;;;;;;14.98;7.87;;;;;;;-5.86;85.71;99623.83;1646612;87;21189;-76
2022/01/22 07:16:43;;;;;;;17.62;8.38;;;;;;;-5.73;85.47;99627.50;1681462;85;21216;-77
2022/01/22 07:19:54;;;;;;;20.97;8.13;;;;;;;-5.62;85.38;99628.19;1646679;87;21193;-74
2022/01/22 07:23:14;;;;;;;17.25;8.20;;;;;;;-5.48;85.22;99625.55;1681007;85;21481;-85
2022/01/22 07:26:28;;;;;;;18.30;8.10;;;;;;;-5.35;84.91;99620.83;1646117;87;21346;-78
2022/01/22 07:29:37;;;;;;;25.17;19.25;;;;;;;-5.28;84.52;99623.49;1646595;87;21192;-80
2022/01/22 07:32:44;;;;;;;17.75;7.60;;;;;;;-5.20;84.35;99635.41;1680893;85;21315;-84
2022/01/22 07:35:49;;;;;;;12.70;7.70;;;;;;;-5.11;84.09;99642.00;1682175;85;21877;-76
2022/01/22 07:38:55;;;;;;;20.12;8.08;;;;;;;-5.04;83.98;99641.98;1646451;87;21295;-86
2022/01/22 07:42:02;;;;;;;18.75;8.10;;;;;;;-4.94;83.88;99644.95;1645221;87;21281;-76
2022/01/22 07:45:09;;;;;;;15.65;7.53;;;;;;;-4.85;83.64;99650.19;1682195;85;21769;-77
2022/01/22 07:48:17;;;;;;;13.08;8.25;;;;;;;-4.77;83.57;99647.44;1682311;85;21754;-84
2022/01/22 07:51:30;;;;;;;17.25;8.80;;;;;;;-4.65;83.43;99654.69;1639818;87;21347;-84
2022/01/22 07:54:35;;;;;;;16.10;8.53;;;;;;;-4.55;83.27;99656.30;1682355;85;21298;-84
2022/01/22 07:57:40;;;;;;;14.47;7.97;;;;;;;-4.47;82.97;99658.02;1682241;85;21330;-84
2022/01/22 08:00:46;;;;;;;18.52;8.58;;;;;;;-4.39;82.93;99659.69;1645424;87;21743;-84
2022/01/22 08:03:53;;;;;;;19.27;9.10;;;;;;;-4.24;82.76;99662.34;1682017;85;21722;-77
2022/01/22 08:07:10;;;;;;;16.12;7.55;;;;;;;-4.14;82.43;99669.68;1659654;85;21909;-83
2022/01/22 08:10:36;;;;;;;19.12;7.55;;;;;;;-4.00;82.22;99675.47;1659010;86;21331;-84
2022/01/22 08:13:40;;;;;;;18.48;8.20;;;;;;;-3.90;81.76;99671.23;1658038;86;21986;-84
2022/01/22 08:16:50;;;;;;;21.70;8.60;;;;;;;-3.86;81.52;99682.10;1695293;84;21188;-78
2022/01/22 08:19:56;;;;;;;18.07;7.78;;;;;;;-3.77;81.30;99683.77;1701473;84;21322;-83
2022/01/22 08:23:20;;;;;;;19.40;8.73;;;;;;;-3.71;81.06;99692.75;1699828;84;21749;-77
2022/01/22 08:26:45;;;;;;;16.52;8.00;;;;;;;-3.67;80.70;99675.06;1652627;85;21363;-76
2022/01/22 08:29:48;;;;;;;17.73;8.17;;;;;;;-3.61;80.69;99681.81;1676849;85;21703;-78
2022/01/22 08:33:09;;;;;;;19.65;8.85;;;;;;;-3.53;80.55;99675.45;1676097;85;21315;-77
2022/01/22 08:36:04;;;;;;;18.55;9.83;;;;;;;-3.42;80.37;99674.76;1676884;85;21865;-77
2022/01/22 08:39:09;;;;;;;27.00;8.98;;;;;;;-3.31;80.21;99675.36;1690103;84;21279;-84
2022/01/22 08:42:15;;;;;;;17.82;9.08;;;;;;;-3.17;79.84;99682.81;1710731;84;21307;-77
2022/01/22 08:45:20;;;;;;;23.22;8.55;;;;;;;-3.06;79.42;99682.08;1710701;84;21274;-85
2022/01/22 08:48:26;;;;;;;18.07;9.45;;;;;;;-2.97;78.92;99683.27;1710894;84;21284;-78
2022/01/22 08:51:32;;;;;;;19.70;10.23;;;;;;;-2.94;78.77;99686.59;1710846;84;21311;-84
2022/01/22 08:54:38;;;;;;;17.60;9.13;;;;;;;-2.87;78.45;99684.34;1710860;84;21153;-80
2022/01/22 08:57:49;;;;;;;32.53;9.33;;;;;;;-2.82;78.12;99679.55;1710692;84;21243;-84
2022/01/22 09:01:00;;;;;;;14.35;7.72;;;;;;;-2.83;77.93;99671.97;1710808;84;21391;-77
2022/01/22 09:04:09;;;;;;;18.15;8.90;;;;;;;-2.77;77.93;99677.89;1708202;84;21730;-77
2022/01/22 09:07:30;;;;;;;17.62;8.35;;;;;;;-2.76;77.79;99675.58;1709132;84;21847;-77
2022/01/22 09:10:53;;;;;;;18.60;8.53;;;;;;;-2.74;77.53;99677.66;1709220;83;21923;-84
2022/01/22 09:14:19;;;;;;;17.50;8.98;;;;;;;-2.76;77.56;99674.25;1710625;84;21881;-81
2022/01/22 09:17:25;;;;;;;18.05;8.53;;;;;;;-2.74;77.57;99673.64;1709819;83;21185;-78
2022/01/22 09:23:46;;;;;;;17.10;8.85;;;;;;;-2.63;77.28;99679.12;1709946;84;21316;-85
2022/01/22 09:26:52;;;;;;;18.37;9.58;;;;;;;-2.60;77.25;99682.41;1709882;84;21319;-79
2022/01/22 09:29:58;;;;;;;17.05;8.13;;;;;;;-2.55;77.10;99678.55;1710514;84;21276;-80
2022/01/22 09:33:04;;;;;;;17.62;9.25;;;;;;;-2.53;76.98;99671.29;1710643;84;21303;-79
2022/01/22 09:36:17;;;;;;;18.77;8.75;;;;;;;-2.52;77.01;99672.51;1710649;84;21969;-79
2022/01/22 09:39:24;;;;;;;19.70;9.05;;;;;;;-2.50;77.04;99677.26;1703680;84;21177;-86
2022/01/22 09:42:31;;;;;;;15.43;8.55;;;;;;;-2.47;77.11;99667.68;1712057;83;21364;-79
2022/01/22 09:45:41;;;;;;;23.25;9.38;;;;;;;-2.45;77.01;99669.75;1667102;83;21296;-85
2022/01/22 09:48:54;;;;;;;18.80;9.70;;;;;;;-2.49;77.12;99664.27;1708570;84;21386;-78
2022/01/22 09:52:06;;;;;;;23.40;9.63;;;;;;;-2.46;77.35;99668.53;1708906;84;21325;-79
2022/01/22 09:55:25;;;;;;;18.60;9.03;;;;;;;-2.42;77.43;99666.86;1708616;84;21823;-78
2022/01/22 09:58:35;;;;;;;20.57;9.80;;;;;;;-2.36;77.57;99669.09;1710710;84;21876;-85
2022/01/22 10:01:44;;;;;;;21.73;8.90;;;;;;;-2.26;77.51;99669.77;1710430;83;21332;-85
2022/01/22 10:04:52;;;;;;;21.45;9.25;;;;;;;-2.19;77.53;99663.02;1708389;84;21320;-79
2022/01/22 10:07:59;;;;;;;16.82;8.83;;;;;;;-2.08;77.32;99664.42;1708743;84;21290;-85
2022/01/22 10:11:07;;;;;;;18.07;8.55;;;;;;;-1.98;77.23;99663.27;1708689;84;21344;-85
2022/01/22 10:14:30;;;;;;;20.55;8.40;;;;;;;-1.84;77.19;99665.30;1710813;84;21273;-78
2022/01/22 10:18:02;;;;;;;17.48;8.68;;;;;;;-1.63;77.01;99661.52;1710565;84;21214;-78
2022/01/22 10:21:07;;;;;;;19.10;8.93;;;;;;;-1.38;76.94;99661.86;1710673;84;21364;-79
2022/01/22 10:24:47;;;;;;;18.45;9.20;;;;;;;-1.11;76.47;99656.22;1692152;84;21206;-85
2022/01/22 10:27:54;;;;;;;19.42;9.28;;;;;;;-0.91;75.98;99653.33;1710810;84;21732;-85
2022/01/22 10:31:25;;;;;;;16.87;8.63;;;;;;;-0.70;75.26;99656.67;1710703;84;21325;-78
2022/01/22 10:34:38;;;;;;;16.12;8.65;;;;;;;-0.60;74.54;99650.44;1710467;84;21904;-85
2022/01/22 10:38:05;;;;;;;17.35;8.65;;;;;;;-0.52;74.35;99654.73;1632399;88;21353;-81
2022/01/22 10:41:11;;;;;;;21.07;10.25;;;;;;;-0.43;74.61;99650.92;1632475;88;21373;-85
2022/01/22 10:44:23;;;;;;;21.20;10.40;;;;;;;-0.28;74.60;99646.53;1702429;83;21847;-84
2022/01/22 10:47:28;;;;;;;24.12;9.25;;;;;;;-0.10;74.42;99642.83;1710690;84;21272;-84
2022/01/22 10:50:34;;;;;;;15.63;8.50;;;;;;;0.11;73.88;99641.58;1710628;84;21206;-84
2022/01/22 10:53:51;;;;;;;15.68;8.20;;;;;;;0.29;73.43;99645.93;1710820;84;21874;-85
2022/01/22 10:56:56;;;;;;;13.78;8.38;;;;;;;0.40;72.61;99641.00;1710837;84;21871;-85
2022/01/22 11:00:03;;;;;;;18.77;8.43;;;;;;;0.45;72.19;99645.50;1710810;84;21323;-79
2022/01/22 11:03:28;;;;;;;17.30;8.58;;;;;;;0.56;72.10;99644.09;1710628;84;21293;-79
2022/01/22 11:06:34;;;;;;;19.92;9.53;;;;;;;0.63;71.34;99639.92;1709808;83;21301;-85
2022/01/22 11:09:39;;;;;;;16.55;8.63;;;;;;;0.59;70.51;99649.73;1710803;84;21329;-85
2022/01/22 11:12:44;;;;;;;23.15;9.73;;;;;;;0.57;70.89;99652.56;1710684;84;21320;-79
2022/01/22 11:15:50;;;;;;;18.10;9.95;;;;;;;0.63;70.77;99652.03;1710586;84;21235;-85
2022/01/22 11:18:57;;;;;;;23.75;10.15;;;;;;;0.62;70.14;99653.52;1710703;84;21313;-84
2022/01/22 11:22:02;;;;;;;18.75;8.13;;;;;;;0.54;69.96;99654.16;1710657;84;21325;-78
2022/01/22 11:25:08;;;;;;;16.62;9.00;;;;;;;0.45;69.65;99647.70;1710647;84;21352;-78
2022/01/22 11:28:13;;;;;;;20.00;8.60;;;;;;;0.28;69.35;99647.38;1710729;84;21337;-78
2022/01/22 11:31:22;;;;;;;22.30;9.38;;;;;;;0.10;69.69;99648.44;1710763;84;21316;-78
2022/01/22 11:34:32;;;;;;;20.85;8.75;;;;;;;0.00;70.37;99651.02;1710630;84;21910;-85
2022/01/22 11:37:56;;;;;;;15.98;7.80;;;;;;;-0.09;70.51;99642.36;1710703;84;21210;-79
2022/01/22 11:41:22;;;;;;;28.57;9.45;;;;;;;-0.17;70.95;99641.63;1705101;84;21338;-85
2022/01/22 11:45:01;;;;;;;17.17;9.35;;;;;;;-0.26;70.91;99645.91;1696494;84;21215;-78
2022/01/22 11:48:33;;;;;;;20.40;10.15;;;;;;;-0.36;71.13;99659.72;1696227;84;21510;-84
2022/01/22 11:51:39;;;;;;;16.50;9.43;;;;;;;-0.40;71.43;99657.41;1695246;84;21314;-82
2022/01/22 11:55:08;;;;;;;17.17;8.80;;;;;;;-0.37;71.86;99660.70;1696498;84;21283;-83
2022/01/22 11:58:15;;;;;;;22.13;8.73;;;;;;;-0.27;72.02;99660.33;1695844;84;21295;-77
2022/01/22 12:01:21;;;;;;;25.57;8.45;;;;;;;-0.16;71.93;99664.84;1696476;84;21884;-78
2022/01/22 12:04:37;;;;;;;17.90;9.88;;;;;;;-0.07;71.84;99663.23;1683651;84;21298;-82
2022/01/22 12:07:42;;;;;;;19.92;8.65;;;;;;;0.05;71.76;99662.72;1694546;84;21310;-78
2022/01/22 12:14:28;;;;;;;17.75;8.93;;;;;;;0.28;71.02;99672.44;1713006;84;21187;-84
2022/01/22 12:18:02;;;;;;;15.95;9.00;;;;;;;0.30;71.03;99677.72;1711932;84;21373;-78
2022/01/22 12:24:16;;;;;;;19.50;8.65;;;;;;;0.18;70.47;99684.45;1713328;84;21206;-78
2022/01/22 12:27:53;;;;;;;16.97;8.90;;;;;;;0.13;70.65;99690.70;1683825;82;21336;-79
2022/01/22 12:30:58;;;;;;;20.40;8.55;;;;;;;0.10;70.82;99692.31;1724684;82;21861;-79
2022/01/22 12:34:03;;;;;;;17.62;8.85;;;;;;;0.07;70.81;99691.20;1656072;85;21198;-76
2022/01/22 12:37:26;;;;;;;17.75;8.85;;;;;;;0.03;70.90;99689.74;1675997;85;21875;-83
2022/01/22 12:40:37;;;;;;;17.35;8.88;;;;;;;-0.02;71.44;99687.42;1672207;85;21867;-83
2022/01/22 12:43:44;;;;;;;16.57;8.88;;;;;;;-0.04;71.41;99677.30;1621197;88;21297;-83
2022/01/22 12:46:52;;;;;;;12.90;7.53;;;;;;;-0.05;71.76;99683.66;1647536;87;21213;-76
2022/01/22 12:50:13;;;;;;;22.30;10.25;;;;;;;-0.06;72.19;99691.34;1648169;87;21225;-76
2022/01/22 12:53:22;;;;;;;17.17;8.25;;;;;;;-0.08;72.41;99690.62;1648544;87;21724;-84
2022/01/22 12:59:40;;;;;;;18.20;9.20;;;;;;;-0.07;72.87;99703.56;1661813;86;21291;-84
2022/01/22 13:02:59;;;;;;;21.55;6.70;;;;;;;-0.03;72.93;99706.38;1662125;86;21193;-77
2022/01/22 13:06:05;;;;;;;16.20;8.23;;;;;;;-0.05;73.03;99711.01;1661402;86;21232;-84
2022/01/22 13:09:28;;;;;;;15.55;8.88;;;;;;;-0.06;73.37;99706.13;1676504;85;21324;-82
2022/01/22 13:12:35;;;;;;;16.57;8.38;;;;;;;-0.06;73.33;99705.27;1676553;85;21220;-84
2022/01/22 13:15:41;;;;;;;17.37;9.35;;;;;;;-0.05;73.20;99704.28;1676151;85;21244;-84
2022/01/22 13:18:59;;;;;;;23.02;9.55;;;;;;;-0.12;72.75;99701.74;1676898;85;21288;-77
2022/01/22 13:22:07;;;;;;;16.05;8.93;;;;;;;-0.22;72.76;99708.84;1676938;85;21268;-77
2022/01/22 13:25:19;;;;;;;17.77;8.98;;;;;;;-0.27;73.24;99718.12;1676822;85;21318;-84
2022/01/22 13:28:24;;;;;;;21.62;9.25;;;;;;;-0.29;73.55;99720.55;1677281;85;21321;-84
2022/01/22 13:31:30;;;;;;;17.35;8.80;;;;;;;-0.33;73.85;99721.77;1676568;85;21192;-85
2022/01/22 13:34:43;;;;;;;16.12;8.65;;;;;;;-0.38;74.20;99723.95;1677218;85;21307;-84
2022/01/22 13:38:41;;;;;;;16.48;8.75;;;;;;;-0.42;74.54;99727.41;1677252;85;21200;-77
2022/01/22 13:45:24;;;;;;;19.10;9.45;;;;;;;-0.52;75.10;99730.41;1676730;85;21173;-78
2022/01/22 13:48:12;;;;;;;16.10;8.35;;;;;;;-0.56;75.15;99734.34;1675628;85;21844;-80
2022/01/22 13:51:18;;;;;;;15.83;8.60;;;;;;;-0.62;75.46;99726.73;1676497;85;21774;-83
2022/01/22 13:54:24;;;;;;;17.90;8.50;;;;;;;-0.64;75.82;99729.55;1657387;85;21284;-79
2022/01/22 13:57:34;;;;;;;21.87;8.98;;;;;;;-0.61;75.95;99738.73;1676910;85;21351;-83
2022/01/22 14:00:40;;;;;;;16.30;8.33;;;;;;;-0.60;76.23;99746.30;1676887;85;21280;-84
2022/01/22 14:03:46;;;;;;;17.77;8.48;;;;;;;-0.55;76.29;99750.33;1676175;85;21161;-79
2022/01/22 14:06:52;;;;;;;14.20;7.67;;;;;;;-0.53;76.11;99755.58;1656954;85;21192;-78
2022/01/22 14:10:03;;;;;;;17.07;7.95;;;;;;;-0.55;76.17;99753.51;1677554;85;21208;-84
2022/01/22 14:13:10;;;;;;;13.72;8.70;;;;;;;-0.52;76.11;99749.22;1679044;85;21258;-77
2022/01/22 14:16:22;;;;;;;18.30;8.85;;;;;;;-0.58;75.87;99742.99;1679099;85;21290;-80
2022/01/22 14:19:37;;;;;;;18.42;8.40;;;;;;;-0.65;75.68;99737.74;1679207;85;21266;-78
2022/01/22 14:23:08;;;;;;;19.27;8.98;;;;;;;-0.79;75.29;99745.03;1678947;85;21831;-77
2022/01/22 14:26:31;;;;;;;20.82;8.93;;;;;;;-1.01;74.92;99754.84;1679178;85;21368;-80
2022/01/22 14:29:35;;;;;;;21.95;9.28;;;;;;;-1.31;74.95;99755.69;1679221;85;21706;-78
2022/01/22 14:32:40;;;;;;;31.60;10.10;;;;;;;-1.50;75.43;99765.23;1679004;85;21306;-84
2022/01/22 14:35:46;;;;;;;17.50;8.45;;;;;;;-1.63;75.58;99767.94;1679232;85;21293;-77
2022/01/22 14:38:56;;;;;;;20.25;9.73;;;;;;;-1.80;75.66;99768.67;1679206;85;21265;-84
2022/01/22 14:45:28;;;;;;;19.15;10.32;;;;;;;-2.14;76.23;99774.26;1679302;85;21204;-77
2022/01/22 14:48:33;;;;;;;19.20;9.70;;;;;;;-2.25;76.81;99777.34;1679052;85;21183;-84
2022/01/22 14:51:38;;;;;;;22.05;11.03;;;;;;;-2.32;77.18;99783.10;1679124;85;21316;-84
2022/01/22 14:54:47;;;;;;;27.80;10.55;;;;;;;-2.45;77.24;99791.61;1679220;85;21310;-77
2022/01/22 14:57:51;;;;;;;22.25;11.70;;;;;;;-2.66;77.86;99795.79;1679156;85;21254;-77
2022/01/22 15:00:57;;;;;;;25.92;12.85;;;;;;;-2.83;78.53;99793.77;1679193;85;21305;-84
2022/01/22 15:04:02;;;;;;;29.52;12.78;;;;;;;-2.88;78.69;99796.38;1679164;85;21183;-81
2022/01/22 15:07:12;;;;;;;26.17;11.55;;;;;;;-2.95;78.83;99806.66;1678299;85;21162;-77
2022/01/22 15:10:16;;;;;;;25.45;11.70;;;;;;;-3.01;78.70;99806.19;1675405;85;21695;-77
2022/01/22 15:13:22;;;;;;;27.77;11.70;;;;;;;-3.04;79.06;99816.63;1677579;85;21151;-78
2022/01/22 15:16:35;;;;;;;25.37;11.93;;;;;;;-3.07;79.57;99819.50;1676843;85;21308;-77
2022/01/22 15:19:34;;;;;;;54.93;22.07;;;;;;;-3.03;79.86;99826.37;1675898;85;21867;-86
2022/01/22 15:22:40;;;;;;;51.20;19.45;;;;;;;-3.02;80.16;99830.75;1676235;85;21306;-85
2022/01/22 15:25:47;;;;;;;29.12;15.23;;;;;;;-3.02;80.50;99834.77;1676020;85;21194;-78
2022/01/22 15:28:53;;;;;;;26.45;14.13;;;;;;;-3.03;80.83;99844.25;1675931;85;21346;-78
2022/01/22 15:35:07;;;;;;;34.85;17.42;;;;;;;-2.96;81.27;99845.09;1676497;85;21277;-78
2022/01/22 15:38:12;;;;;;;37.38;16.50;;;;;;;-2.91;81.08;99848.31;1676818;85;21304;-78
2022/01/22 15:41:18;;;;;;;36.90;17.10;;;;;;;-2.87;81.00;99848.48;1676887;85;21828;-85
2022/01/22 15:44:24;;;;;;;31.82;15.88;;;;;;;-2.81;80.96;99850.38;1677383;85;21270;-77
2022/01/22 15:47:29;;;;;;;31.37;17.27;;;;;;;-2.74;80.87;99848.98;1676151;85;21777;-79
2022/01/22 15:50:34;;;;;;;38.73;18.80;;;;;;;-2.66;80.83;99854.20;1677272;85;21154;-79
2022/01/22 15:53:42;;;;;;;33.65;17.15;;;;;;;-2.59;80.49;99847.48;1676823;85;21289;-84
2022/01/22 15:56:48;;;;;;;38.17;18.20;;;;;;;-2.59;80.07;99855.52;1675932;85;21305;-80
2022/01/22 15:59:55;;;;;;;28.60;13.65;;;;;;;-2.62;80.02;99861.56;1676385;85;21226;-84
2022/01/22 16:03:07;;;;;;;32.13;14.20;;;;;;;-2.69;79.83;99874.97;1677211;85;21206;-77
2022/01/22 16:06:19;;;;;;;29.42;14.38;;;;;;;-2.91;79.60;99875.08;1676894;85;21329;-77
2022/01/22 16:09:29;;;;;;;35.20;15.35;;;;;;;-3.11;80.20;99883.05;1676568;85;21289;-85
2022/01/22 16:12:35;;;;;;;29.37;14.93;;;;;;;-3.24;80.84;99883.50;1647416;87;21339;-85
2022/01/22 16:15:40;;;;;;;32.03;16.02;;;;;;;-3.32;81.51;99890.30;1648122;87;21315;-78
2022/01/22 16:18:47;;;;;;;27.42;15.32;;;;;;;-3.33;82.26;99888.58;1647868;87;21814;-83
2022/01/22 16:21:54;;;;;;;27.48;14.93;;;;;;;-3.30;82.63;99894.57;1646706;87;21757;-84
2022/01/22 16:25:01;;;;;;;33.92;15.85;;;;;;;-3.26;82.83;99901.92;1647133;87;21343;-84
2022/01/22 16:28:06;;;;;;;27.77;14.25;;;;;;;-3.20;82.93;99893.05;1648055;87;21319;-84
2022/01/22 16:31:11;;;;;;;25.60;13.18;;;;;;;-3.09;83.08;99893.67;1647506;87;21229;-78